Time;durP1;ratioP1;P1;durP2;ratioP2;P2;SDS_P1;SDS_P2;PMS_P1;PMS_P2;Temp;Humidity;BMP_temperature;BMP_pressure;BME280_temperature;BME280_humidity;BME280_pressure;Samples;Min_cycle;Max_cycle;Signal;HPM_P1;HPM_P2
2023/12/12 00:02:19;;;;;;;11.27;4.82;;;;;;;7.38;100.00;100710.88;5113737;28;20031;-58
2023/12/12 00:04:44;;;;;;;11.43;5.50;;;;;;;7.39;100.00;100714.38;5096140;28;20024;-59
2023/12/12 00:07:10;;;;;;;14.57;5.35;;;;;;;7.39;100.00;100715.22;5114242;28;20032;-58
2023/12/12 00:09:35;;;;;;;19.17;6.25;;;;;;;7.35;100.00;100712.81;5114363;28;20035;-58
2023/12/12 00:12:00;;;;;;;14.55;5.40;;;;;;;7.35;100.00;100711.00;5113632;28;20471;-58
2023/12/12 00:14:26;;;;;;;11.45;5.45;;;;;;;7.27;100.00;100707.94;5114223;28;20454;-58
2023/12/12 00:16:54;;;;;;;15.30;5.30;;;;;;;7.36;100.00;100722.47;5113856;28;20031;-58
2023/12/12 00:19:19;;;;;;;14.70;4.85;;;;;;;7.27;100.00;100713.22;5095973;28;20078;-58
2023/12/12 00:21:47;;;;;;;12.63;5.35;;;;;;;7.26;100.00;100712.38;5095322;28;20039;-59
2023/12/12 00:24:13;;;;;;;13.93;5.10;;;;;;;7.21;100.00;100708.25;5114092;28;20050;-58
2023/12/12 00:26:39;;;;;;;12.05;5.55;;;;;;;7.29;100.00;100708.69;5095301;28;20561;-58
2023/12/12 00:29:04;;;;;;;23.95;7.13;;;;;;;7.24;100.00;100706.28;5095668;28;20031;-58
2023/12/12 00:31:30;;;;;;;15.75;5.70;;;;;;;7.27;100.00;100702.63;5113403;28;20435;-58
2023/12/12 00:33:56;;;;;;;16.73;5.72;;;;;;;7.23;100.00;100703.72;5095163;28;20484;-58
2023/12/12 00:36:21;;;;;;;11.52;5.60;;;;;;;7.21;100.00;100717.03;5113742;28;20077;-58
2023/12/12 00:38:46;;;;;;;10.15;5.88;;;;;;;7.18;100.00;100716.34;5113659;28;20027;-58
2023/12/12 00:41:14;;;;;;;20.58;5.38;;;;;;;7.17;100.00;100717.25;5113326;28;20156;-58
2023/12/12 00:43:40;;;;;;;12.55;5.82;;;;;;;7.13;100.00;100703.34;5113554;28;20035;-58
2023/12/12 00:46:05;;;;;;;18.65;6.07;;;;;;;7.12;100.00;100704.28;5112666;28;20482;-58
2023/12/12 00:48:31;;;;;;;17.05;5.40;;;;;;;7.12;100.00;100695.47;5113504;28;20082;-58
2023/12/12 00:50:56;;;;;;;9.63;5.65;;;;;;;7.10;100.00;100697.34;5113421;28;20031;-58
2023/12/12 00:53:24;;;;;;;14.90;5.45;;;;;;;7.09;100.00;100701.78;5095356;28;20393;-58
2023/12/12 00:55:49;;;;;;;14.98;5.72;;;;;;;7.12;100.00;100706.03;5112659;28;20032;-59
2023/12/12 00:58:17;;;;;;;16.42;5.63;;;;;;;7.07;100.00;100708.94;5094927;28;20071;-58
2023/12/12 01:00:42;;;;;;;24.45;6.65;;;;;;;7.07;100.00;100698.38;5094761;28;20107;-58
2023/12/12 01:03:08;;;;;;;22.95;6.13;;;;;;;7.03;100.00;100695.03;5113473;28;20533;-58
2023/12/12 01:05:33;;;;;;;14.98;5.80;;;;;;;6.99;100.00;100688.16;5113040;28;20034;-58
2023/12/12 01:08:01;;;;;;;15.13;5.10;;;;;;;6.95;100.00;100693.72;5112669;28;20243;-58
2023/12/12 01:10:27;;;;;;;19.20;5.32;;;;;;;6.87;100.00;100694.06;5095235;28;20028;-58
2023/12/12 01:12:52;;;;;;;24.23;5.45;;;;;;;6.86;100.00;100699.47;5094587;28;20039;-59
2023/12/12 01:15:18;;;;;;;17.65;5.90;;;;;;;6.84;100.00;100696.88;5112597;28;20077;-58
2023/12/12 01:17:43;;;;;;;23.27;6.30;;;;;;;6.81;100.00;100692.59;5094498;28;20007;-58
2023/12/12 01:20:10;;;;;;;17.17;5.82;;;;;;;6.78;100.00;100692.75;5094552;28;20023;-58
2023/12/12 01:22:35;;;;;;;11.52;5.40;;;;;;;6.72;100.00;100684.28;5094845;28;20028;-58
2023/12/12 01:25:01;;;;;;;18.23;5.38;;;;;;;6.69;100.00;100687.06;5112429;28;20027;-58
2023/12/12 01:27:26;;;;;;;18.80;4.93;;;;;;;6.64;100.00;100679.34;5112321;28;20083;-58
2023/12/12 01:29:51;;;;;;;19.90;5.57;;;;;;;6.59;100.00;100686.69;5094298;28;20032;-58
2023/12/12 01:32:17;;;;;;;17.80;5.82;;;;;;;6.58;100.00;100690.22;5111999;28;20023;-58
2023/12/12 01:34:42;;;;;;;14.32;5.50;;;;;;;6.53;100.00;100684.31;5094485;28;20034;-58
2023/12/12 01:37:08;;;;;;;13.57;5.35;;;;;;;6.54;100.00;100684.25;5077931;28;20019;-58
2023/12/12 01:39:33;;;;;;;11.55;5.15;;;;;;;6.51;100.00;100676.47;5111895;28;20016;-58
2023/12/12 01:41:58;;;;;;;16.25;5.28;;;;;;;6.49;100.00;100682.75;5112457;28;20186;-59
2023/12/12 01:44:24;;;;;;;13.98;4.32;;;;;;;6.42;100.00;100666.38;5112415;28;20031;-58
2023/12/12 01:46:51;;;;;;;15.05;6.85;;;;;;;6.38;100.00;100664.78;5093527;28;20020;-58
2023/12/12 01:49:17;;;;;;;15.88;4.88;;;;;;;6.39;100.00;100671.78;5111860;28;20054;-58
2023/12/12 01:51:45;;;;;;;18.73;4.95;;;;;;;6.44;100.00;100682.13;5112374;28;20055;-58
2023/12/12 01:54:11;;;;;;;20.95;6.70;;;;;;;6.43;100.00;100678.63;5093913;28;20474;-58
2023/12/12 01:56:40;;;;;;;14.05;5.13;;;;;;;6.43;100.00;100681.28;5112212;28;20382;-58
2023/12/12 01:59:05;;;;;;;15.85;5.85;;;;;;;6.40;100.00;100676.13;5111472;28;20066;-58
2023/12/12 02:01:31;;;;;;;17.02;4.88;;;;;;;6.44;100.00;100680.38;5111227;28;20015;-58
2023/12/12 02:03:57;;;;;;;14.45;4.85;;;;;;;6.42;100.00;100676.09;5093938;28;20386;-58
2023/12/12 02:06:23;;;;;;;17.98;5.22;;;;;;;6.41;100.00;100682.28;5111273;28;20363;-58
2023/12/12 02:08:50;;;;;;;21.20;6.22;;;;;;;6.43;100.00;100675.13;5093463;28;20081;-58
2023/12/12 02:11:16;;;;;;;17.55;5.93;;;;;;;6.39;100.00;100682.38;5111781;28;20034;-58
2023/12/12 02:13:42;;;;;;;17.10;5.53;;;;;;;6.39;100.00;100678.88;5094096;28;20031;-58
2023/12/12 02:16:08;;;;;;;28.02;5.38;;;;;;;6.37;100.00;100671.00;5111828;28;20035;-58
2023/12/12 02:18:34;;;;;;;21.10;5.50;;;;;;;6.36;100.00;100675.44;5093420;28;20016;-58
2023/12/12 02:21:00;;;;;;;20.73;4.85;;;;;;;6.28;100.00;100660.88;5111820;28;20050;-58
2023/12/12 02:23:29;;;;;;;24.42;5.47;;;;;;;6.26;100.00;100658.31;5093098;28;20042;-58
2023/12/12 02:25:59;;;;;;;19.60;5.60;;;;;;;6.27;100.00;100667.13;5112047;28;20039;-58
2023/12/12 02:28:25;;;;;;;16.50;5.97;;;;;;;6.26;100.00;100655.66;5111269;28;20058;-58
2023/12/12 02:30:51;;;;;;;13.75;5.45;;;;;;;6.26;100.00;100662.75;5093273;28;20035;-58
2023/12/12 02:33:19;;;;;;;21.17;5.55;;;;;;;6.24;100.00;100660.19;5093682;28;20169;-58
2023/12/12 02:35:44;;;;;;;18.27;5.25;;;;;;;6.24;100.00;100654.06;5110366;28;20031;-58
2023/12/12 02:38:09;;;;;;;18.98;5.40;;;;;;;6.22;100.00;100656.75;5111961;28;20023;-58
2023/12/12 02:40:35;;;;;;;16.77;5.13;;;;;;;6.15;100.00;100652.72;5093370;28;20129;-58
2023/12/12 02:43:03;;;;;;;15.68;5.22;;;;;;;6.14;100.00;100643.91;5111992;28;20031;-58
2023/12/12 02:45:28;;;;;;;24.10;6.22;;;;;;;6.16;100.00;100649.13;5110952;28;20370;-58
2023/12/12 02:47:53;;;;;;;16.70;5.38;;;;;;;6.14;100.00;100657.13;5093609;28;20027;-58
2023/12/12 02:50:19;;;;;;;8.13;4.57;;;;;;;6.08;100.00;100652.13;5093337;28;20416;-58
2023/12/12 02:52:45;;;;;;;18.42;5.15;;;;;;;6.00;100.00;100643.75;5111346;28;20078;-58
2023/12/12 02:55:10;;;;;;;23.48;6.60;;;;;;;6.02;100.00;100652.41;5093516;28;20371;-58
2023/12/12 02:57:38;;;;;;;22.88;5.30;;;;;;;6.03;100.00;100656.78;5093319;28;20028;-58
2023/12/12 03:00:05;;;;;;;21.90;5.63;;;;;;;6.00;100.00;100651.66;5111224;28;20081;-58
2023/12/12 03:02:31;;;;;;;23.58;5.82;;;;;;;6.00;100.00;100648.13;5111108;28;20026;-58
2023/12/12 03:04:57;;;;;;;14.10;4.68;;;;;;;5.94;100.00;100649.28;5111472;28;20027;-58
2023/12/12 03:07:23;;;;;;;18.00;6.20;;;;;;;5.92;100.00;100648.47;5111898;28;20024;-58
2023/12/12 03:09:49;;;;;;;23.08;6.60;;;;;;;5.89;100.00;100644.19;5112717;28;20015;-58
2023/12/12 03:12:15;;;;;;;21.38;5.97;;;;;;;5.90;100.00;100645.06;5097158;28;20027;-58
2023/12/12 03:14:40;;;;;;;14.13;5.15;;;;;;;5.86;100.00;100630.31;5115223;28;20550;-58
2023/12/12 03:17:06;;;;;;;24.52;6.10;;;;;;;5.84;100.00;100629.50;5096836;28;20052;-58
2023/12/12 03:19:31;;;;;;;19.25;5.97;;;;;;;5.82;100.00;100631.34;5115044;28;20020;-58
2023/12/12 03:21:57;;;;;;;24.33;5.40;;;;;;;5.78;100.00;100619.25;5096846;28;20032;-58
2023/12/12 03:24:22;;;;;;;19.00;4.95;;;;;;;5.81;100.00;100627.88;5096775;28;20015;-58
2023/12/12 03:26:47;;;;;;;19.58;5.45;;;;;;;5.71;100.00;100605.50;5115294;28;20027;-58
2023/12/12 03:29:13;;;;;;;16.55;5.18;;;;;;;5.80;100.00;100628.81;5114892;28;20067;-58
2023/12/12 03:31:41;;;;;;;15.07;4.78;;;;;;;5.76;100.00;100624.56;5114895;28;20028;-58
2023/12/12 03:34:07;;;;;;;11.02;4.38;;;;;;;5.73;100.00;100627.34;5114887;28;20024;-58
2023/12/12 03:36:34;;;;;;;16.80;4.55;;;;;;;5.72;100.00;100622.16;5115075;28;20027;-58
2023/12/12 03:38:59;;;;;;;23.88;6.35;;;;;;;5.69;100.00;100616.09;5096607;28;20569;-58
2023/12/12 03:41:25;;;;;;;22.17;4.78;;;;;;;5.69;100.00;100615.25;5114960;28;20103;-58
2023/12/12 03:43:51;;;;;;;20.95;5.97;;;;;;;5.70;100.00;100612.53;5096365;28;20054;-58
2023/12/12 03:46:18;;;;;;;15.25;5.35;;;;;;;5.70;100.00;100609.03;5114322;28;20020;-58
2023/12/12 03:48:44;;;;;;;21.77;5.40;;;;;;;5.68;100.00;100595.94;5096386;28;20027;-58
2023/12/12 03:51:10;;;;;;;18.70;6.07;;;;;;;5.67;100.00;100591.56;5114688;28;20505;-58
2023/12/12 03:53:36;;;;;;;21.10;5.75;;;;;;;5.68;100.00;100589.81;5114965;28;20020;-58
2023/12/12 03:56:01;;;;;;;17.65;5.80;;;;;;;5.72;100.00;100585.22;5114311;28;20363;-58
2023/12/12 03:58:27;;;;;;;15.93;6.15;;;;;;;5.78;100.00;100585.78;5096571;28;20467;-58
2023/12/12 04:00:52;;;;;;;18.15;6.60;;;;;;;5.78;100.00;100582.31;5113787;28;20024;-58
2023/12/12 04:03:17;;;;;;;20.45;6.15;;;;;;;5.74;100.00;100572.84;5095922;28;20020;-58
2023/12/12 04:05:43;;;;;;;19.30;5.82;;;;;;;5.83;100.00;100581.16;5095841;28;20497;-58
2023/12/12 04:08:08;;;;;;;16.98;5.70;;;;;;;5.87;100.00;100579.22;5096315;28;20020;-58
2023/12/12 04:10:34;;;;;;;29.08;6.75;;;;;;;5.89;100.00;100572.94;5079190;28;20393;-58
2023/12/12 04:13:00;;;;;;;25.00;6.07;;;;;;;5.92;100.00;100567.50;5114406;28;20023;-58
2023/12/12 04:15:25;;;;;;;18.60;6.80;;;;;;;5.97;100.00;100562.06;5095302;28;20024;-58
2023/12/12 04:17:50;;;;;;;23.50;7.47;;;;;;;5.99;100.00;100562.81;5114087;28;20028;-58
2023/12/12 04:20:16;;;;;;;21.77;6.80;;;;;;;6.02;100.00;100567.09;5095513;28;20043;-58
2023/12/12 04:22:41;;;;;;;22.73;6.57;;;;;;;6.06;100.00;100558.97;5113507;28;20068;-58
2023/12/12 04:25:07;;;;;;;21.90;7.20;;;;;;;6.08;100.00;100556.22;5114185;28;20024;-58
2023/12/12 04:27:32;;;;;;;26.88;6.55;;;;;;;6.09;100.00;100550.91;5113527;28;20048;-58
2023/12/12 04:29:58;;;;;;;32.15;7.35;;;;;;;6.10;100.00;100560.50;5113961;28;20028;-58
2023/12/12 04:32:23;;;;;;;27.70;7.95;;;;;;;6.11;100.00;100553.44;5113379;28;20024;-58
2023/12/12 04:34:49;;;;;;;26.58;6.47;;;;;;;6.12;100.00;100561.31;5095771;28;20373;-58
2023/12/12 04:37:14;;;;;;;26.35;6.40;;;;;;;6.15;100.00;100562.94;5113562;28;20015;-58
2023/12/12 04:39:40;;;;;;;29.35;7.85;;;;;;;6.18;100.00;100559.25;5095704;28;20026;-58
2023/12/12 04:42:06;;;;;;;25.08;7.18;;;;;;;6.20;100.00;100552.13;5113974;28;20027;-58
2023/12/12 04:44:31;;;;;;;20.42;6.35;;;;;;;6.22;100.00;100552.91;5095559;28;20582;-58
2023/12/12 04:46:56;;;;;;;27.70;6.80;;;;;;;6.24;100.00;100551.06;5112522;28;20031;-58
2023/12/12 04:49:22;;;;;;;14.75;5.78;;;;;;;6.25;100.00;100542.19;5113564;28;20098;-58
2023/12/12 04:51:47;;;;;;;28.83;6.95;;;;;;;6.24;100.00;100541.34;5095282;28;20064;-58
2023/12/12 04:54:12;;;;;;;28.30;7.32;;;;;;;6.26;100.00;100536.81;5113625;28;20016;-59
2023/12/12 04:56:38;;;;;;;22.38;7.18;;;;;;;6.31;100.00;100541.91;5113678;28;20419;-58
2023/12/12 04:59:03;;;;;;;20.23;6.65;;;;;;;6.32;100.00;100535.66;5113196;28;20016;-58
2023/12/12 05:01:29;;;;;;;20.70;7.32;;;;;;;6.34;100.00;100537.31;5112498;28;20496;-58
2023/12/12 05:03:54;;;;;;;34.17;7.35;;;;;;;6.36;100.00;100529.31;5113476;28;20026;-58
2023/12/12 05:06:19;;;;;;;23.02;6.28;;;;;;;6.39;100.00;100528.31;5113191;28;20378;-58
2023/12/12 05:08:45;;;;;;;29.00;7.80;;;;;;;6.38;100.00;100530.06;5112894;28;20068;-58
2023/12/12 05:11:13;;;;;;;27.20;5.95;;;;;;;6.31;100.00;100513.69;5094728;28;20055;-58
2023/12/12 05:13:38;;;;;;;23.17;6.35;;;;;;;6.39;100.00;100521.25;5095151;28;20034;-58
2023/12/12 05:16:07;;;;;;;21.35;6.07;;;;;;;6.40;100.00;100519.44;5093408;28;20019;-58
2023/12/12 05:18:32;;;;;;;20.05;7.30;;;;;;;6.43;100.00;100527.22;5113276;28;20027;-58
2023/12/12 05:20:58;;;;;;;25.50;5.68;;;;;;;6.43;100.00;100520.13;5112146;28;20504;-58
2023/12/12 05:23:23;;;;;;;35.22;7.22;;;;;;;6.44;100.00;100513.94;5094676;28;20059;-58
2023/12/12 05:25:49;;;;;;;29.13;6.70;;;;;;;6.45;100.00;100513.00;5112399;28;20032;-58
2023/12/12 05:28:16;;;;;;;15.55;5.90;;;;;;;6.44;100.00;100508.66;5094354;28;20044;-58
2023/12/12 05:30:42;;;;;;;30.70;6.45;;;;;;;6.46;100.00;100512.06;5111234;28;20506;-58
2023/12/12 05:33:07;;;;;;;36.53;7.28;;;;;;;6.48;100.00;100512.00;5094465;28;20061;-58
2023/12/12 05:35:35;;;;;;;33.30;8.57;;;;;;;6.48;100.00;100510.19;5094435;28;20023;-58
2023/12/12 05:38:03;;;;;;;25.20;7.05;;;;;;;6.50;100.00;100508.34;5093883;28;20024;-58
2023/12/12 05:40:29;;;;;;;27.80;7.15;;;;;;;6.52;100.00;100502.97;5112664;28;20023;-58
2023/12/12 05:42:54;;;;;;;24.73;6.68;;;;;;;6.53;100.00;100505.53;5112005;28;20030;-58
2023/12/12 05:45:19;;;;;;;25.63;6.90;;;;;;;6.55;100.00;100503.66;5111624;28;20026;-58
2023/12/12 05:47:45;;;;;;;20.58;6.72;;;;;;;6.48;100.00;100497.00;5111986;28;20054;-58
2023/12/12 05:50:11;;;;;;;27.17;6.88;;;;;;;6.56;100.00;100509.81;5112372;28;20463;-59
2023/12/12 05:52:37;;;;;;;24.33;7.40;;;;;;;6.55;100.00;100506.28;5094237;28;20553;-58
2023/12/12 05:55:05;;;;;;;22.05;6.50;;;;;;;6.55;100.00;100505.44;5111677;28;20505;-58
2023/12/12 05:57:32;;;;;;;25.42;7.80;;;;;;;6.55;100.00;100508.94;5077789;28;20390;-58
2023/12/12 05:59:57;;;;;;;32.05;7.57;;;;;;;6.54;100.00;100509.88;5111200;28;20084;-58
2023/12/12 06:02:22;;;;;;;27.38;7.53;;;;;;;6.57;100.00;100509.72;5112365;28;20031;-58
2023/12/12 06:04:48;;;;;;;20.30;6.88;;;;;;;6.58;100.00;100503.50;5111977;28;20031;-58
2023/12/12 06:07:13;;;;;;;33.17;7.18;;;;;;;6.59;100.00;100505.22;5112268;28;20028;-58
2023/12/12 06:09:39;;;;;;;24.60;7.32;;;;;;;6.58;100.00;100498.19;5111889;28;20467;-58
2023/12/12 06:12:06;;;;;;;24.10;7.72;;;;;;;6.62;100.00;100496.28;5094066;28;20023;-58
2023/12/12 06:14:31;;;;;;;31.17;7.20;;;;;;;6.62;100.00;100501.56;5112358;28;20034;-58
2023/12/12 06:16:57;;;;;;;30.13;7.20;;;;;;;6.63;100.00;100499.78;5092989;28;20023;-58
2023/12/12 06:19:23;;;;;;;26.60;6.68;;;;;;;6.65;100.00;100495.22;5112255;28;20070;-58
2023/12/12 06:21:52;;;;;;;27.27;7.60;;;;;;;6.66;100.00;100489.88;5112058;28;20024;-58
2023/12/12 06:24:17;;;;;;;30.95;6.45;;;;;;;6.59;100.00;100478.78;5112373;28;20027;-58
2023/12/12 06:26:42;;;;;;;29.77;7.53;;;;;;;6.67;100.00;100485.44;5110152;28;20038;-58
2023/12/12 06:29:09;;;;;;;27.90;6.20;;;;;;;6.64;100.00;100481.19;5093371;28;20513;-59
2023/12/12 06:31:35;;;;;;;20.77;6.05;;;;;;;6.66;100.00;100471.38;5092649;28;20051;-58
2023/12/12 06:34:01;;;;;;;26.63;8.00;;;;;;;6.63;100.00;100457.50;5112123;28;20016;-58
2023/12/12 06:36:26;;;;;;;27.67;6.65;;;;;;;6.67;100.00;100462.50;5093456;28;20507;-58
2023/12/12 06:38:52;;;;;;;26.80;6.25;;;;;;;6.68;100.00;100466.03;5111307;28;20031;-58
2023/12/12 06:41:18;;;;;;;24.48;6.43;;;;;;;6.69;100.00;100459.81;5111276;28;20382;-58
2023/12/12 06:43:43;;;;;;;23.92;7.07;;;;;;;6.68;100.00;100452.81;5111508;28;20042;-58
2023/12/12 06:46:12;;;;;;;22.70;6.32;;;;;;;6.70;100.00;100449.13;5115359;28;20485;-58
2023/12/12 06:48:38;;;;;;;24.48;6.65;;;;;;;6.71;100.00;100455.31;5115508;28;20450;-58
2023/12/12 06:51:09;;;;;;;30.20;6.97;;;;;;;6.69;100.00;100446.59;5115382;28;20023;-58
2023/12/12 06:53:34;;;;;;;20.08;5.32;;;;;;;6.67;100.00;100445.81;5097271;28;20051;-58
2023/12/12 06:56:00;;;;;;;24.42;6.60;;;;;;;6.67;100.00;100437.88;5115557;28;20554;-59
2023/12/12 06:58:25;;;;;;;23.02;5.70;;;;;;;6.67;100.00;100435.25;5096942;28;20038;-58
2023/12/12 07:00:51;;;;;;;20.05;5.30;;;;;;;6.60;100.00;100425.00;5097101;28;20032;-58
2023/12/12 07:03:18;;;;;;;28.27;7.45;;;;;;;6.67;100.00;100430.81;5115508;28;20065;-58
2023/12/12 07:05:44;;;;;;;39.17;5.88;;;;;;;6.66;100.00;100425.63;5096699;28;20020;-58
2023/12/12 07:08:09;;;;;;;34.17;6.30;;;;;;;6.60;100.00;100418.88;5115697;28;20039;-58
2023/12/12 07:10:37;;;;;;;26.67;6.68;;;;;;;6.68;100.00;100431.69;5115558;28;20115;-58
2023/12/12 07:13:02;;;;;;;27.27;6.63;;;;;;;6.70;100.00;100429.78;5115185;28;20486;-58
2023/12/12 07:15:28;;;;;;;22.08;6.03;;;;;;;6.71;100.00;100432.38;5114688;28;20107;-58
2023/12/12 07:17:56;;;;;;;24.65;6.43;;;;;;;6.71;100.00;100429.72;5115534;28;20019;-58
2023/12/12 07:20:22;;;;;;;18.08;6.13;;;;;;;6.74;100.00;100434.00;5115159;28;20030;-58
2023/12/12 07:22:47;;;;;;;18.55;6.40;;;;;;;6.72;100.00;100426.13;5115422;28;20386;-58
2023/12/12 07:25:13;;;;;;;26.33;5.90;;;;;;;6.77;100.00;100431.19;5096375;28;20397;-58
2023/12/12 07:27:39;;;;;;;29.08;5.78;;;;;;;6.78;100.00;100428.44;5115034;28;20418;-58
2023/12/12 07:30:05;;;;;;;25.48;5.80;;;;;;;6.78;100.00;100423.16;5096576;28;20028;-58
2023/12/12 07:32:30;;;;;;;20.80;5.65;;;;;;;6.83;100.00;100423.75;5096535;28;20108;-58
2023/12/12 07:34:58;;;;;;;18.70;5.30;;;;;;;6.88;100.00;100427.94;5114609;28;20470;-59
2023/12/12 07:37:23;;;;;;;23.23;6.03;;;;;;;6.89;100.00;100422.59;5115188;28;20016;-58
2023/12/12 07:39:49;;;;;;;24.50;6.30;;;;;;;6.86;100.00;100411.34;5114770;28;20359;-58
2023/12/12 07:42:16;;;;;;;21.02;6.38;;;;;;;6.85;100.00;100401.69;5096011;28;20400;-58
2023/12/12 07:44:42;;;;;;;28.95;6.00;;;;;;;6.95;100.00;100406.38;5115031;28;20024;-58
2023/12/12 07:47:08;;;;;;;27.73;6.60;;;;;;;6.96;100.00;100407.22;5114510;28;20065;-58
2023/12/12 07:49:33;;;;;;;24.10;5.40;;;;;;;7.00;100.00;100404.34;5096397;28;20019;-58
2023/12/12 07:51:59;;;;;;;20.00;6.13;;;;;;;7.01;100.00;100395.47;5096042;28;20058;-58
2023/12/12 07:54:25;;;;;;;24.02;6.50;;;;;;;7.02;100.00;100394.50;5095132;28;20054;-59
2023/12/12 07:56:50;;;;;;;23.50;6.13;;;;;;;7.01;100.00;100387.53;5114079;28;20081;-58
2023/12/12 07:59:17;;;;;;;28.30;6.13;;;;;;;7.02;100.00;100389.22;5114679;28;20466;-58
2023/12/12 08:01:43;;;;;;;35.13;6.55;;;;;;;7.03;100.00;100388.31;5114157;28;20103;-58
2023/12/12 08:04:08;;;;;;;25.67;6.43;;;;;;;7.03;100.00;100384.81;5114717;28;20058;-58
2023/12/12 08:06:36;;;;;;;35.03;6.35;;;;;;;7.01;100.00;100376.97;5078841;28;20020;-58
2023/12/12 08:09:05;;;;;;;19.33;5.55;;;;;;;7.07;100.00;100385.50;5114206;28;20016;-58
2023/12/12 08:11:30;;;;;;;26.73;6.85;;;;;;;7.10;100.00;100380.03;5094761;28;20028;-58
2023/12/12 08:13:55;;;;;;;23.25;6.85;;;;;;;7.10;100.00;100375.59;5095962;27;20485;-58
2023/12/12 08:16:24;;;;;;;25.10;6.03;;;;;;;7.12;100.00;100371.06;5112598;28;20038;-58
2023/12/12 08:18:50;;;;;;;19.67;5.35;;;;;;;7.15;100.00;100370.06;5095236;28;20015;-58
2023/12/12 08:21:17;;;;;;;35.00;8.18;;;;;;;7.11;100.00;100353.47;5113406;28;20031;-58
2023/12/12 08:23:43;;;;;;;18.02;5.45;;;;;;;7.19;100.00;100369.78;5094894;28;20066;-58
2023/12/12 08:26:14;;;;;;;30.58;6.78;;;;;;;7.18;100.00;100354.00;5113090;28;20073;-58
2023/12/12 08:28:40;;;;;;;29.90;6.80;;;;;;;7.21;100.00;100351.19;5094099;28;20047;-58
2023/12/12 08:31:05;;;;;;;26.90;6.05;;;;;;;7.28;100.00;100356.03;5111151;27;20027;-58
2023/12/12 08:33:33;;;;;;;18.95;5.65;;;;;;;7.30;100.00;100348.00;5113498;28;20421;-58
2023/12/12 08:35:59;;;;;;;27.10;7.65;;;;;;;7.32;100.00;100348.75;5110347;28;20379;-58
2023/12/12 08:38:24;;;;;;;23.15;6.90;;;;;;;7.32;100.00;100348.75;5093312;28;20031;-58
2023/12/12 08:40:50;;;;;;;25.30;6.32;;;;;;;7.38;100.00;100351.06;5112751;28;20028;-58
2023/12/12 08:43:16;;;;;;;18.70;6.63;;;;;;;7.41;100.00;100348.25;5113275;28;20386;-58
2023/12/12 08:45:43;;;;;;;24.33;6.90;;;;;;;7.46;100.00;100347.97;5112553;28;20038;-58
2023/12/12 08:48:09;;;;;;;18.95;5.40;;;;;;;7.43;100.00;100327.81;5113021;28;20031;-58
2023/12/12 08:50:35;;;;;;;25.23;6.07;;;;;;;7.54;100.00;100340.44;5094202;28;20394;-58
2023/12/12 08:53:02;;;;;;;26.27;6.82;;;;;;;7.55;100.00;100341.28;5094404;28;20036;-58
2023/12/12 08:55:27;;;;;;;25.88;6.50;;;;;;;7.62;100.00;100343.50;5112747;28;20132;-58
2023/12/12 08:57:52;;;;;;;24.48;6.40;;;;;;;7.65;100.00;100339.81;5094503;28;20027;-58
2023/12/12 09:00:18;;;;;;;26.42;5.97;;;;;;;7.61;100.00;100328.53;5093663;28;20027;-58
2023/12/12 09:02:44;;;;;;;26.02;6.13;;;;;;;7.68;100.00;100329.91;5112702;28;20038;-58
2023/12/12 09:05:09;;;;;;;14.15;5.20;;;;;;;7.74;100.00;100326.03;5094648;28;20030;-58
2023/12/12 09:07:35;;;;;;;25.02;6.07;;;;;;;7.74;100.00;100315.44;5112074;28;20102;-58
2023/12/12 09:10:03;;;;;;;23.60;5.10;;;;;;;7.80;100.00;100315.06;5112156;28;20108;-58
2023/12/12 09:12:28;;;;;;;14.63;5.50;;;;;;;7.85;100.00;100309.50;5095825;28;20054;-58
2023/12/12 09:14:54;;;;;;;20.15;5.70;;;;;;;7.90;100.00;100302.13;5112551;28;20550;-58
2023/12/12 09:17:19;;;;;;;18.08;5.32;;;;;;;7.89;100.00;100292.50;5094003;28;20030;-58
2023/12/12 09:19:45;;;;;;;20.88;5.85;;;;;;;7.97;100.00;100296.38;5112345;28;20020;-58
2023/12/12 09:22:10;;;;;;;25.77;5.75;;;;;;;8.01;100.00;100297.03;5111476;28;20103;-58
2023/12/12 09:24:36;;;;;;;26.73;5.25;;;;;;;8.05;100.00;100284.44;5094111;28;20024;-58
2023/12/12 09:27:01;;;;;;;22.58;5.47;;;;;;;8.15;100.00;100293.53;5111642;28;20389;-58
2023/12/12 09:29:27;;;;;;;27.15;6.05;;;;;;;8.14;100.00;100283.88;5093936;28;20482;-58
2023/12/12 09:31:52;;;;;;;13.00;5.63;;;;;;;8.19;100.00;100284.44;5093440;28;20028;-58
2023/12/12 09:34:20;;;;;;;15.77;5.43;;;;;;;8.30;100.00;100287.28;5093757;28;20019;-58
2023/12/12 09:36:50;;;;;;;13.85;4.15;;;;;;;8.39;100.00;100285.88;5093466;28;20055;-58
2023/12/12 09:39:16;;;;;;;;;;;;;;;8.49;100.00;100281.69;5112517;27;20072;-58
2023/12/12 09:41:45;;;;;;;16.98;5.13;;;;;;;8.62;100.00;100287.09;5093913;28;19919;-59
2023/12/12 09:44:12;;;;;;;;;;;;;;;8.78;100.00;100284.28;5093970;28;20382;-58
2023/12/12 09:46:38;;;;;;;12.13;4.70;;;;;;;8.87;100.00;100281.88;5127520;27;20370;-58
2023/12/12 09:49:06;;;;;;;16.05;5.82;;;;;;;8.97;100.00;100278.63;5111618;28;20053;-58
2023/12/12 09:51:32;;;;;;;16.58;4.50;;;;;;;8.96;100.00;100264.50;5111420;28;20023;-58
2023/12/12 09:54:00;;;;;;;16.52;5.20;;;;;;;8.99;100.00;100274.91;5094236;28;20026;-58
2023/12/12 09:56:25;;;;;;;13.52;4.55;;;;;;;8.98;100.00;100264.44;5112279;28;20048;-58
2023/12/12 09:58:50;;;;;;;24.45;5.13;;;;;;;9.00;100.00;100259.84;5094575;28;20490;-58
2023/12/12 10:01:16;;;;;;;15.60;5.00;;;;;;;9.00;100.00;100241.28;5111688;28;20027;-59
2023/12/12 10:03:44;;;;;;;14.07;4.75;;;;;;;9.11;100.00;100244.09;5112071;28;20023;-58
2023/12/12 10:06:13;;;;;;;15.75;4.78;;;;;;;9.20;100.00;100242.63;5093370;28;20020;-59
2023/12/12 10:08:40;;;;;;;16.30;5.57;;;;;;;9.16;100.00;100209.28;5112705;28;20485;-58
2023/12/12 10:11:09;;;;;;;20.70;7.53;;;;;;;9.30;100.00;100223.34;5112509;28;20038;-58
2023/12/12 10:13:54;;;;;;;19.00;4.35;;;;;;;9.51;100.00;100226.31;5095041;28;20026;-58
2023/12/12 10:16:20;;;;;;;8.43;4.32;;;;;;;9.48;100.00;100218.56;5112093;28;20151;-58
2023/12/12 10:18:46;;;;;;;13.05;4.45;;;;;;;9.55;100.00;100211.03;5112348;28;20054;-58
2023/12/12 10:21:20;;;;;;;18.02;7.25;;;;;;;9.73;100.00;100209.75;5097807;28;20474;-58
2023/12/12 10:23:47;;;;;;;15.15;4.00;;;;;;;10.12;100.00;100205.25;5116696;28;20106;-58
2023/12/12 10:26:27;;;;;;;11.32;4.30;;;;;;;10.55;100.00;100207.47;5097880;28;20027;-59
2023/12/12 10:28:56;;;;;;;9.93;3.75;;;;;;;10.97;100.00;100199.94;5116158;28;20055;-58
2023/12/12 10:31:22;;;;;;;14.90;3.58;;;;;;;11.51;100.00;100207.34;5115922;28;20383;-59
2023/12/12 10:33:51;;;;;;;14.68;3.63;;;;;;;11.94;100.00;100200.47;5098162;28;20024;-59
2023/12/12 10:36:21;;;;;;;9.25;3.50;;;;;;;12.28;97.74;100203.97;5115897;28;20469;-59
2023/12/12 10:38:50;;;;;;;9.20;4.18;;;;;;;12.36;95.12;100198.03;5116345;28;20032;-59
2023/12/12 10:41:17;;;;;;;12.73;5.15;;;;;;;12.52;92.82;100192.28;5115900;28;20130;-59
2023/12/12 10:43:44;;;;;;;14.40;4.75;;;;;;;12.46;92.99;100202.47;5093079;27;20057;-59
2023/12/12 10:46:14;;;;;;;10.25;3.70;;;;;;;12.18;92.70;100193.22;5114995;28;20064;-59
2023/12/12 10:48:52;;;;;;;11.40;3.83;;;;;;;12.12;94.21;100190.16;5097053;28;20038;-59
2023/12/12 10:51:18;;;;;;;10.43;4.00;;;;;;;11.96;92.94;100186.06;5115243;28;20538;-59
2023/12/12 10:53:46;;;;;;;11.73;4.90;;;;;;;11.53;94.19;100177.91;5096913;28;20032;-59
2023/12/12 10:56:13;;;;;;;10.10;4.38;;;;;;;11.13;96.09;100181.84;5115178;28;20051;-59
2023/12/12 10:58:41;;;;;;;11.02;4.15;;;;;;;10.92;98.09;100183.47;5097173;28;20027;-59
2023/12/12 11:01:09;;;;;;;10.32;4.65;;;;;;;10.74;98.51;100163.56;5114810;28;20019;-59
2023/12/12 11:03:36;;;;;;;14.82;5.10;;;;;;;10.59;100.00;100158.44;5096857;28;20733;-59
2023/12/12 11:06:03;;;;;;;10.05;6.18;;;;;;;10.41;100.00;100149.13;5096657;28;20024;-58
2023/12/12 11:08:29;;;;;;;13.98;6.95;;;;;;;10.33;100.00;100149.72;5114919;27;20062;-59
2023/12/12 11:10:55;;;;;;;14.85;5.70;;;;;;;10.21;100.00;100138.16;5096548;28;20073;-58
2023/12/12 11:13:25;;;;;;;11.18;5.28;;;;;;;10.15;100.00;100133.28;5114969;27;20023;-59